Time;durP1;ratioP1;P1;durP2;ratioP2;P2;SDS_P1;SDS_P2;PMS_P1;PMS_P2;Temp;Humidity;BMP_temperature;BMP_pressure;BME280_temperature;BME280_humidity;BME280_pressure;Samples;Min_cycle;Max_cycle;Signal;HPM_P1;HPM_P2
2022/01/04 00:02:05;;;;;;;23.27;7.35;;;9.10;99.90;;;;;;5014712;28;20034;-51
2022/01/04 00:04:31;;;;;;;20.15;9.38;;;9.10;99.90;;;;;;5013851;28;20049;-54
2022/01/04 00:06:58;;;;;;;27.20;8.55;;;9.10;99.90;;;;;;5014508;28;20049;-60
2022/01/04 00:09:23;;;;;;;17.05;8.30;;;9.10;99.90;;;;;;4995766;28;20033;-59
2022/01/04 00:14:21;;;;;;;21.75;9.13;;;9.10;99.90;;;;;;4996571;28;20019;-59
2022/01/04 00:16:47;;;;;;;24.95;9.40;;;9.20;99.90;;;;;;4995432;28;20125;-59
2022/01/04 00:19:13;;;;;;;20.92;9.90;;;9.10;99.90;;;;;;4995503;28;20050;-58
2022/01/04 00:21:40;;;;;;;19.50;9.77;;;9.10;99.90;;;;;;4995510;28;20035;-57
2022/01/04 00:24:06;;;;;;;19.92;9.95;;;9.10;99.90;;;;;;4995267;28;20030;-55
2022/01/04 00:26:32;;;;;;;20.95;9.45;;;9.00;99.90;;;;;;4995463;28;20494;-57
2022/01/04 00:28:57;;;;;;;25.70;9.40;;;9.00;99.90;;;;;;4994981;28;20018;-57
2022/01/04 00:31:23;;;;;;;21.42;10.38;;;9.00;99.90;;;;;;4995132;28;20411;-53
2022/01/04 00:33:49;;;;;;;30.27;10.05;;;9.00;99.90;;;;;;4995250;28;20046;-53
2022/01/04 00:36:15;;;;;;;19.73;10.52;;;9.10;99.90;;;;;;4994917;28;20495;-56
2022/01/04 00:38:41;;;;;;;24.75;10.77;;;9.10;99.90;;;;;;4994754;28;20034;-55
2022/01/04 00:41:06;;;;;;;23.77;10.80;;;9.10;99.90;;;;;;4993329;28;20026;-55
2022/01/04 00:43:33;;;;;;;26.08;11.65;;;9.10;99.90;;;;;;4994622;28;20080;-55
2022/01/04 00:45:59;;;;;;;23.20;10.68;;;9.10;99.90;;;;;;4994505;28;20038;-54
2022/01/04 00:50:52;;;;;;;22.63;11.73;;;9.10;99.90;;;;;;4994389;28;20053;-56
2022/01/04 00:53:17;;;;;;;25.48;13.02;;;9.10;99.90;;;;;;4994602;28;20061;-56
2022/01/04 00:55:43;;;;;;;24.55;12.15;;;9.20;99.90;;;;;;4994617;28;20027;-53
2022/01/04 00:58:09;;;;;;;35.95;11.77;;;9.10;99.90;;;;;;5013213;28;20034;-52
2022/01/04 01:00:35;;;;;;;31.45;11.90;;;9.10;99.90;;;;;;5014022;28;20065;-52
2022/01/04 01:03:00;;;;;;;26.50;11.10;;;9.10;99.90;;;;;;5013887;28;20030;-56
2022/01/04 01:05:26;;;;;;;35.88;13.00;;;9.10;99.90;;;;;;5014002;28;20033;-56
2022/01/04 01:07:53;;;;;;;29.13;12.40;;;9.10;99.90;;;;;;5013979;28;20113;-57
2022/01/04 01:12:54;;;;;;;22.38;11.35;;;9.10;99.90;;;;;;5013351;28;20030;-55
2022/01/04 01:15:21;;;;;;;32.35;12.25;;;9.10;99.90;;;;;;5013100;28;20071;-56
2022/01/04 01:17:47;;;;;;;27.40;12.43;;;9.10;99.90;;;;;;5011730;28;20598;-55
2022/01/04 01:20:13;;;;;;;22.88;11.30;;;9.00;99.90;;;;;;5013165;28;20399;-54
2022/01/04 01:22:40;;;;;;;32.55;13.38;;;9.10;99.90;;;;;;5012125;28;20453;-51
2022/01/04 01:25:07;;;;;;;27.55;13.55;;;9.10;99.90;;;;;;5012104;28;20387;-53
2022/01/04 01:27:33;;;;;;;26.10;12.75;;;9.10;99.90;;;;;;5012125;28;20049;-54
2022/01/04 01:29:58;;;;;;;23.52;12.38;;;9.10;99.90;;;;;;5013479;28;20139;-54
2022/01/04 01:32:24;;;;;;;28.63;12.27;;;9.00;99.90;;;;;;5013665;28;20037;-53
2022/01/04 01:34:49;;;;;;;36.72;14.02;;;9.00;99.90;;;;;;5012875;28;20029;-57
2022/01/04 01:37:15;;;;;;;31.02;13.27;;;9.00;99.90;;;;;;5013501;28;20371;-54
2022/01/04 01:39:40;;;;;;;26.38;13.32;;;8.90;99.90;;;;;;5013917;28;20062;-56
2022/01/04 01:42:07;;;;;;;27.35;13.85;;;8.90;99.90;;;;;;5013224;28;20372;-55
2022/01/04 01:44:34;;;;;;;28.73;13.27;;;8.80;99.90;;;;;;5012874;28;20032;-54
2022/01/04 01:47:00;;;;;;;33.65;13.65;;;8.70;99.90;;;;;;5011466;28;20121;-56
2022/01/04 01:49:26;;;;;;;31.92;14.43;;;8.80;99.90;;;;;;5013194;28;20105;-56
2022/01/04 01:51:52;;;;;;;37.38;14.80;;;8.80;99.90;;;;;;5013128;28;20026;-56
2022/01/04 01:54:19;;;;;;;29.73;13.98;;;8.70;99.90;;;;;;5013268;28;20033;-56
2022/01/04 01:56:45;;;;;;;30.35;14.57;;;8.70;99.90;;;;;;5013209;28;20026;-57
2022/01/04 01:59:13;;;;;;;33.35;14.57;;;8.70;99.90;;;;;;5013086;28;20447;-57
2022/01/04 02:01:38;;;;;;;31.13;14.68;;;8.70;99.90;;;;;;5013200;28;20105;-57
2022/01/04 02:04:04;;;;;;;39.03;15.57;;;8.70;99.90;;;;;;5013617;28;20427;-55
2022/01/04 02:06:30;;;;;;;35.35;15.57;;;8.70;99.90;;;;;;5013004;28;20026;-56
2022/01/04 02:08:57;;;;;;;32.72;15.02;;;8.70;99.90;;;;;;5012632;28;20038;-57
2022/01/04 02:11:25;;;;;;;25.90;14.32;;;8.80;99.90;;;;;;5012673;28;20026;-55
2022/01/04 02:13:50;;;;;;;35.72;14.82;;;8.80;99.90;;;;;;5012866;28;20022;-57
2022/01/04 02:16:17;;;;;;;40.47;15.48;;;8.80;99.90;;;;;;5013236;28;20029;-57
2022/01/04 02:18:42;;;;;;;34.97;14.68;;;8.80;99.90;;;;;;5013234;28;20018;-56
2022/01/04 02:21:08;;;;;;;34.20;15.48;;;8.80;99.90;;;;;;5013170;28;20487;-56
2022/01/04 02:23:33;;;;;;;30.38;15.85;;;8.80;99.90;;;;;;5012109;28;20026;-57
2022/01/04 02:26:01;;;;;;;34.17;15.38;;;8.80;99.90;;;;;;5012571;28;20417;-57
2022/01/04 02:28:28;;;;;;;31.33;15.43;;;8.80;99.90;;;;;;5012720;28;20436;-54
2022/01/04 02:30:54;;;;;;;40.60;16.80;;;8.80;99.90;;;;;;5011302;28;20037;-55
2022/01/04 02:33:19;;;;;;;30.60;15.75;;;8.80;99.90;;;;;;5012778;28;20022;-55
2022/01/04 02:35:45;;;;;;;35.38;15.20;;;8.70;99.90;;;;;;5012575;28;20018;-55
2022/01/04 02:40:39;;;;;;;31.70;16.42;;;8.70;99.90;;;;;;5011243;28;20267;-62
2022/01/04 02:43:05;;;;;;;35.20;15.40;;;8.70;99.90;;;;;;5007466;28;20030;-62
2022/01/04 02:45:30;;;;;;;36.40;16.02;;;8.70;99.90;;;;;;5014366;28;20033;-62
2022/01/04 02:47:56;;;;;;;34.47;15.88;;;8.70;99.90;;;;;;5014126;28;20482;-62
2022/01/04 02:50:22;;;;;;;36.63;17.00;;;8.70;99.90;;;;;;5013343;28;20160;-61
2022/01/04 02:52:48;;;;;;;37.63;16.88;;;8.70;99.90;;;;;;5012205;28;20037;-62
2022/01/04 02:55:15;;;;;;;35.03;16.13;;;8.70;99.90;;;;;;5013885;28;20530;-62
2022/01/04 02:57:41;;;;;;;38.25;16.35;;;8.60;99.90;;;;;;5011915;28;20368;-64
2022/01/04 03:00:10;;;;;;;33.90;17.58;;;8.60;99.90;;;;;;5013532;28;20131;-62
2022/01/04 03:02:35;;;;;;;42.03;16.45;;;8.60;99.90;;;;;;5013046;28;20068;-62
2022/01/04 03:05:01;;;;;;;35.80;17.70;;;8.60;99.90;;;;;;5014151;28;20037;-62
2022/01/04 03:07:27;;;;;;;34.58;16.52;;;8.50;99.90;;;;;;5013626;28;20061;-63
2022/01/04 03:09:53;;;;;;;39.78;16.58;;;8.50;99.90;;;;;;5013475;28;20084;-63
2022/01/04 03:12:20;;;;;;;35.70;17.35;;;8.50;99.90;;;;;;5013599;28;20050;-63
2022/01/04 03:14:46;;;;;;;37.30;17.50;;;8.40;99.90;;;;;;5014115;28;20014;-62
2022/01/04 03:17:11;;;;;;;39.30;17.33;;;8.40;99.90;;;;;;5010370;28;20041;-63
2022/01/04 03:19:38;;;;;;;37.42;16.65;;;8.40;99.90;;;;;;5007528;28;20483;-63
2022/01/04 03:22:04;;;;;;;42.60;19.48;;;8.40;99.90;;;;;;5013012;28;20033;-63
2022/01/04 03:24:30;;;;;;;35.70;17.98;;;8.30;99.90;;;;;;5013545;28;20081;-63
2022/01/04 03:26:56;;;;;;;40.08;18.83;;;8.40;99.90;;;;;;5013712;28;20482;-63
2022/01/04 03:29:22;;;;;;;40.20;18.00;;;8.40;99.90;;;;;;5013334;28;20153;-63
2022/01/04 03:31:48;;;;;;;47.53;19.27;;;8.40;99.90;;;;;;5013523;28;20037;-63
2022/01/04 03:34:14;;;;;;;42.28;18.20;;;8.40;99.90;;;;;;5014819;28;20053;-63
2022/01/04 03:36:40;;;;;;;45.03;19.98;;;8.40;99.90;;;;;;5017744;28;20022;-61
2022/01/04 03:39:09;;;;;;;40.50;18.65;;;8.50;99.90;;;;;;5016642;28;20606;-61
2022/01/04 03:41:38;;;;;;;40.10;17.95;;;8.40;99.90;;;;;;5017116;28;20026;-61
2022/01/04 03:44:10;;;;;;;36.25;18.73;;;8.40;99.90;;;;;;5006051;28;20027;-62
2022/01/04 03:46:36;;;;;;;38.33;18.40;;;8.40;99.90;;;;;;5009687;28;20021;-62
2022/01/04 03:49:03;;;;;;;41.33;18.83;;;8.40;99.90;;;;;;5016939;28;20456;-61
2022/01/04 03:51:28;;;;;;;40.45;19.95;;;8.40;99.90;;;;;;5017108;28;20414;-62
2022/01/04 03:53:54;;;;;;;37.50;19.02;;;8.40;99.90;;;;;;5017135;28;20076;-61
2022/01/04 03:56:20;;;;;;;40.38;19.35;;;8.30;99.90;;;;;;5017387;28;20029;-62
2022/01/04 03:58:45;;;;;;;41.28;18.80;;;8.30;99.90;;;;;;5015845;28;20048;-62
2022/01/04 04:01:11;;;;;;;36.58;20.27;;;8.30;99.90;;;;;;5016960;28;20045;-62
2022/01/04 04:03:36;;;;;;;45.05;19.95;;;8.20;99.90;;;;;;5016929;28;20053;-63
2022/01/04 04:06:02;;;;;;;41.45;19.92;;;8.10;99.90;;;;;;5017169;28;20433;-63
2022/01/04 04:08:28;;;;;;;44.30;20.60;;;8.10;99.90;;;;;;5017895;28;20022;-63
2022/01/04 04:10:54;;;;;;;42.65;21.23;;;8.10;99.90;;;;;;5017050;28;20033;-63
2022/01/04 04:13:19;;;;;;;39.97;20.05;;;8.10;99.90;;;;;;5016659;28;20110;-63
2022/01/04 04:15:45;;;;;;;41.67;20.25;;;8.10;99.90;;;;;;5016827;28;20026;-63
2022/01/04 04:18:11;;;;;;;46.97;22.33;;;8.10;99.90;;;;;;5016788;28;20026;-63
2022/01/04 04:20:38;;;;;;;44.67;20.73;;;8.00;99.90;;;;;;5016823;28;20026;-63
2022/01/04 04:23:05;;;;;;;43.78;20.52;;;8.10;99.90;;;;;;5010092;28;20569;-63
2022/01/04 04:25:31;;;;;;;40.20;20.75;;;8.10;99.90;;;;;;4996748;28;20461;-63
2022/01/04 04:27:57;;;;;;;46.13;20.60;;;8.00;99.90;;;;;;4996612;28;20488;-63
2022/01/04 04:30:23;;;;;;;40.35;20.80;;;8.00;99.90;;;;;;4996721;28;20034;-64
2022/01/04 04:32:48;;;;;;;45.80;20.92;;;8.10;99.90;;;;;;4996585;28;20444;-61
2022/01/04 04:35:15;;;;;;;45.92;20.40;;;8.10;99.90;;;;;;4996245;28;20495;-61
2022/01/04 04:37:40;;;;;;;40.70;20.55;;;8.00;99.90;;;;;;4996443;28;20032;-61
2022/01/04 04:40:07;;;;;;;45.05;20.10;;;8.00;99.90;;;;;;4995484;28;20042;-61
2022/01/04 04:42:34;;;;;;;46.83;20.52;;;8.00;99.90;;;;;;5002171;28;20095;-61
2022/01/04 04:45:01;;;;;;;43.10;20.83;;;8.00;99.90;;;;;;5015944;28;20029;-61
2022/01/04 04:47:26;;;;;;;48.65;20.02;;;8.00;99.90;;;;;;5015243;28;20402;-60
2022/01/04 04:49:55;;;;;;;51.25;21.95;;;8.00;99.90;;;;;;5017151;28;20030;-61
2022/01/04 04:52:21;;;;;;;41.95;21.65;;;8.00;99.90;;;;;;5016935;28;20021;-61
2022/01/04 04:54:47;;;;;;;51.30;22.58;;;8.00;99.90;;;;;;5016053;28;20041;-62
2022/01/04 04:57:13;;;;;;;49.50;21.70;;;8.00;99.90;;;;;;5015833;28;20030;-62
2022/01/04 04:59:38;;;;;;;41.20;21.50;;;8.00;99.90;;;;;;5015484;28;20025;-62
2022/01/04 05:02:07;;;;;;;48.35;22.02;;;8.00;99.90;;;;;;5015275;28;20041;-62
2022/01/04 05:04:33;;;;;;;42.63;21.45;;;8.00;99.90;;;;;;5015430;28;20021;-62
2022/01/04 05:06:58;;;;;;;45.65;21.75;;;8.00;99.90;;;;;;5015593;28;20030;-61
2022/01/04 05:09:24;;;;;;;42.85;21.50;;;8.10;99.90;;;;;;5015069;28;20101;-61
2022/01/04 05:11:49;;;;;;;47.05;21.52;;;8.10;99.90;;;;;;5015391;28;20022;-62
2022/01/04 05:14:15;;;;;;;45.90;20.00;;;8.10;99.90;;;;;;5015304;28;20018;-62
2022/01/04 05:16:41;;;;;;;43.33;20.02;;;8.10;99.90;;;;;;5005665;28;20022;-62
2022/01/04 05:19:06;;;;;;;50.15;23.00;;;8.10;99.90;;;;;;5003898;28;20029;-62
2022/01/04 05:21:32;;;;;;;52.28;22.70;;;8.20;99.90;;;;;;5004542;28;20029;-62
2022/01/04 05:23:58;;;;;;;42.40;20.13;;;8.20;99.90;;;;;;5003359;28;20100;-62
2022/01/04 05:26:23;;;;;;;43.67;21.33;;;8.30;99.90;;;;;;5004615;28;20475;-62
2022/01/04 05:28:49;;;;;;;41.65;20.90;;;8.30;99.90;;;;;;5008405;28;20047;-62
2022/01/04 05:31:17;;;;;;;45.80;20.13;;;8.30;99.90;;;;;;5004847;28;20072;-63
2022/01/04 05:33:43;;;;;;;39.67;20.60;;;8.30;99.90;;;;;;5006381;28;20077;-63
2022/01/04 05:36:09;;;;;;;53.67;23.17;;;8.30;99.90;;;;;;5004677;28;20061;-63
2022/01/04 05:38:34;;;;;;;43.05;21.63;;;8.30;99.90;;;;;;5006009;28;20034;-62
2022/01/04 05:41:00;;;;;;;38.70;19.67;;;8.30;99.90;;;;;;5003228;28;20022;-63
2022/01/04 05:43:26;;;;;;;38.33;20.33;;;8.30;99.90;;;;;;5004416;28;20101;-63
2022/01/04 05:45:51;;;;;;;46.35;20.33;;;8.40;99.90;;;;;;5003360;28;20064;-63
2022/01/04 05:48:20;;;;;;;43.22;20.85;;;8.40;99.90;;;;;;5003023;28;20112;-63
2022/01/04 05:50:46;;;;;;;51.35;20.23;;;8.40;99.90;;;;;;5004441;28;20054;-63
2022/01/04 05:53:12;;;;;;;41.67;21.63;;;8.40;99.90;;;;;;5003170;28;20466;-63
2022/01/04 05:55:37;;;;;;;44.75;20.95;;;8.40;99.90;;;;;;5005183;28;20106;-63
2022/01/04 05:58:03;;;;;;;38.95;19.67;;;8.40;99.90;;;;;;5001590;28;20034;-63
2022/01/04 06:00:29;;;;;;;40.80;20.90;;;8.40;99.90;;;;;;5003894;28;20034;-63
2022/01/04 06:02:55;;;;;;;45.60;20.02;;;8.40;99.90;;;;;;5002787;28;20487;-63
2022/01/04 06:05:20;;;;;;;43.58;20.63;;;8.40;99.90;;;;;;5002560;28;20387;-63
2022/01/04 06:07:46;;;;;;;44.72;19.83;;;8.30;99.90;;;;;;5003968;28;20022;-63
2022/01/04 06:10:13;;;;;;;47.42;20.27;;;8.40;99.90;;;;;;5002531;28;20433;-63
2022/01/04 06:15:10;;;;;;;40.17;20.50;;;8.50;99.90;;;;;;5003811;28;20014;-63
2022/01/04 06:17:42;;;;;;;41.17;18.63;;;8.40;99.90;;;;;;5003605;28;20427;-63
2022/01/04 06:20:13;;;;;;;42.53;20.35;;;8.50;99.90;;;;;;5000931;28;20087;-63
2022/01/04 06:22:39;;;;;;;40.30;19.98;;;8.50;99.90;;;;;;5001100;28;20080;-63
2022/01/04 06:25:06;;;;;;;36.28;20.40;;;8.50;99.90;;;;;;5004109;28;20022;-62
2022/01/04 06:27:32;;;;;;;41.03;19.38;;;8.50;99.90;;;;;;5003221;28;20023;-64
2022/01/04 06:29:58;;;;;;;46.03;18.95;;;8.50;99.90;;;;;;5004705;28;20084;-62
2022/01/04 06:32:24;;;;;;;37.45;20.25;;;8.50;99.90;;;;;;5005090;28;20026;-62
2022/01/04 06:34:50;;;;;;;35.60;18.98;;;8.50;99.90;;;;;;5003361;28;20062;-62
2022/01/04 06:37:16;;;;;;;38.33;18.13;;;8.50;99.90;;;;;;5004245;28;20101;-62
2022/01/04 06:39:43;;;;;;;39.00;18.45;;;8.50;99.90;;;;;;5004618;28;20096;-62
2022/01/04 06:42:11;;;;;;;33.08;17.90;;;8.50;99.90;;;;;;5005507;28;20021;-62
2022/01/04 06:44:37;;;;;;;40.40;19.77;;;8.50;99.90;;;;;;5003165;28;20477;-62
2022/01/04 06:47:04;;;;;;;44.22;17.95;;;8.60;99.90;;;;;;5005273;28;20457;-62
2022/01/04 06:49:30;;;;;;;39.97;18.75;;;8.60;99.90;;;;;;5002363;28;20371;-62
2022/01/04 06:51:56;;;;;;;35.08;18.05;;;8.60;99.90;;;;;;5002388;28;20026;-61
2022/01/04 06:54:22;;;;;;;35.70;18.85;;;8.60;99.90;;;;;;5002430;28;20391;-61
2022/01/04 06:56:48;;;;;;;33.63;18.33;;;8.50;99.90;;;;;;5004617;28;20029;-62
2022/01/04 06:59:15;;;;;;;38.35;18.35;;;8.60;99.90;;;;;;5002633;28;20026;-62
2022/01/04 07:01:40;;;;;;;34.40;18.40;;;8.50;99.90;;;;;;5002874;28;20029;-62
2022/01/04 07:04:07;;;;;;;36.33;18.90;;;8.60;99.90;;;;;;5001596;28;20070;-62
2022/01/04 07:06:34;;;;;;;34.00;17.27;;;8.60;99.90;;;;;;5001221;28;20030;-61
2022/01/04 07:09:00;;;;;;;33.88;18.33;;;8.60;99.90;;;;;;5014634;28;20026;-62
2022/01/04 07:11:26;;;;;;;33.10;17.48;;;8.60;99.90;;;;;;5017713;28;20026;-62
2022/01/04 07:13:52;;;;;;;34.33;18.70;;;8.50;99.90;;;;;;5015100;28;20069;-63
2022/01/04 07:16:17;;;;;;;37.10;18.95;;;8.50;99.90;;;;;;5012820;28;20473;-63
2022/01/04 07:18:48;;;;;;;38.03;18.92;;;8.50;99.90;;;;;;5004998;28;20098;-63
2022/01/04 07:21:15;;;;;;;39.38;19.10;;;8.50;99.90;;;;;;5002757;28;20080;-60
2022/01/04 07:23:41;;;;;;;38.45;18.50;;;8.60;99.90;;;;;;4998688;28;20443;-63
2022/01/04 07:26:11;;;;;;;41.40;18.58;;;8.60;99.90;;;;;;5003242;28;20022;-63
2022/01/04 07:28:38;;;;;;;35.05;18.27;;;8.60;99.90;;;;;;5016701;28;20071;-63
2022/01/04 07:31:04;;;;;;;37.17;17.55;;;8.60;99.90;;;;;;5017068;28;20025;-62
2022/01/04 07:33:30;;;;;;;43.35;19.27;;;8.60;99.90;;;;;;5016893;28;20017;-62
2022/01/04 07:35:55;;;;;;;40.50;18.60;;;8.60;99.90;;;;;;5016840;28;20414;-62
2022/01/04 07:38:21;;;;;;;39.00;19.20;;;8.60;99.90;;;;;;5017407;28;20096;-62
2022/01/04 07:40:47;;;;;;;34.13;17.10;;;8.60;99.90;;;;;;5017016;28;20483;-62
2022/01/04 07:43:12;;;;;;;34.63;17.40;;;8.60;99.90;;;;;;5016725;28;20034;-62
2022/01/04 07:45:38;;;;;;;37.88;18.55;;;8.60;99.90;;;;;;5016739;28;20026;-62
2022/01/04 07:48:06;;;;;;;37.17;17.08;;;8.70;99.90;;;;;;5016989;28;20084;-62
2022/01/04 07:50:32;;;;;;;41.33;18.35;;;8.70;99.90;;;;;;5016725;28;20030;-62
2022/01/04 07:52:57;;;;;;;37.00;18.63;;;8.70;99.90;;;;;;5016567;28;20479;-62
2022/01/04 07:55:23;;;;;;;35.35;17.60;;;8.70;99.90;;;;;;5016414;28;20075;-62
2022/01/04 07:57:48;;;;;;;38.20;18.80;;;8.70;99.90;;;;;;5016386;28;20026;-62
2022/01/04 08:00:15;;;;;;;34.25;16.48;;;8.70;99.90;;;;;;5016374;28;20042;-62
2022/01/04 08:02:41;;;;;;;36.92;18.40;;;8.70;99.90;;;;;;5016352;28;20526;-63
2022/01/04 08:05:08;;;;;;;32.65;17.15;;;8.70;99.90;;;;;;5013322;28;20398;-62
2022/01/04 08:07:34;;;;;;;35.95;16.98;;;8.70;99.90;;;;;;5014674;28;20033;-62
2022/01/04 08:09:59;;;;;;;37.97;18.20;;;8.70;99.90;;;;;;5015796;28;20026;-61
2022/01/04 08:12:26;;;;;;;34.58;18.42;;;8.70;99.90;;;;;;5016070;28;20332;-63
2022/01/04 08:14:51;;;;;;;33.50;16.88;;;8.70;99.90;;;;;;5016043;28;20029;-63
2022/01/04 08:17:17;;;;;;;37.55;17.85;;;8.70;99.90;;;;;;5014842;28;20025;-64
2022/01/04 08:19:43;;;;;;;34.55;16.85;;;8.70;99.90;;;;;;5016054;28;20033;-62
2022/01/04 08:22:08;;;;;;;33.25;17.55;;;8.80;99.90;;;;;;5014460;28;20030;-62
2022/01/04 08:24:34;;;;;;;40.85;17.38;;;8.80;99.90;;;;;;5016231;28;20026;-62
2022/01/04 08:27:00;;;;;;;34.42;18.30;;;8.80;99.90;;;;;;5015791;28;20081;-62
2022/01/04 08:29:26;;;;;;;34.40;17.85;;;8.80;99.90;;;;;;5014579;28;20017;-63
2022/01/04 08:31:51;;;;;;;41.67;17.55;;;8.80;99.90;;;;;;5015794;28;20064;-63
2022/01/04 08:34:17;;;;;;;32.58;16.98;;;8.90;99.90;;;;;;5016303;28;20026;-63
2022/01/04 08:36:43;;;;;;;30.73;16.98;;;8.90;99.90;;;;;;5015743;28;20034;-63
2022/01/04 08:39:14;;;;;;;35.88;17.02;;;8.90;99.90;;;;;;5016252;28;20038;-62
2022/01/04 08:41:45;;;;;;;31.58;16.20;;;8.90;99.90;;;;;;5015667;28;20064;-63
2022/01/04 08:44:11;;;;;;;34.10;17.23;;;8.90;99.90;;;;;;5016116;28;20368;-63
2022/01/04 08:46:39;;;;;;;38.00;17.95;;;8.90;99.90;;;;;;5016523;28;20029;-62
2022/01/04 08:49:07;;;;;;;36.60;16.73;;;8.90;99.90;;;;;;5015760;28;20034;-63
2022/01/04 08:51:33;;;;;;;37.00;16.50;;;8.90;99.90;;;;;;4998282;28;20120;-63
2022/01/04 08:53:59;;;;;;;33.25;16.95;;;8.90;99.90;;;;;;5014424;28;20022;-63
2022/01/04 08:56:26;;;;;;;33.53;16.40;;;8.90;99.90;;;;;;5015626;28;20034;-63
2022/01/04 08:58:51;;;;;;;40.20;16.75;;;8.90;99.90;;;;;;5014283;28;20101;-63
2022/01/04 09:01:17;;;;;;;35.97;17.20;;;8.90;99.90;;;;;;5013930;28;20160;-63
2022/01/04 09:03:42;;;;;;;39.05;17.55;;;8.90;99.90;;;;;;5013880;28;20057;-63
2022/01/04 09:06:10;;;;;;;33.70;16.98;;;8.90;99.90;;;;;;5015200;28;20036;-63
2022/01/04 09:08:36;;;;;;;35.33;16.63;;;8.90;99.90;;;;;;5015803;28;20037;-63
2022/01/04 09:11:02;;;;;;;29.85;16.30;;;8.90;99.90;;;;;;5013654;28;20033;-63
2022/01/04 09:13:34;;;;;;;38.95;16.85;;;9.00;99.90;;;;;;5013703;28;20022;-63
2022/01/04 09:18:43;;;;;;;33.28;17.70;;;9.00;99.90;;;;;;5015009;28;20383;-63
2022/01/04 09:21:10;;;;;;;31.52;16.38;;;9.00;99.90;;;;;;5013768;28;20030;-63
2022/01/04 09:23:36;;;;;;;34.28;17.73;;;9.00;99.90;;;;;;5014957;28;20038;-63
2022/01/04 09:26:01;;;;;;;31.00;16.65;;;9.00;99.90;;;;;;5015326;28;20044;-63
2022/01/04 09:28:27;;;;;;;33.92;16.63;;;9.00;99.90;;;;;;5014706;28;20026;-63
2022/01/04 09:30:53;;;;;;;29.67;15.98;;;9.10;99.90;;;;;;5015018;28;20029;-63
2022/01/04 09:33:20;;;;;;;39.20;17.77;;;9.10;99.90;;;;;;5014945;28;20032;-63
2022/01/04 09:35:46;;;;;;;37.95;18.90;;;9.00;99.90;;;;;;5014897;28;20424;-63
2022/01/04 09:38:12;;;;;;;34.95;17.00;;;9.10;99.90;;;;;;5015282;28;20026;-64
2022/01/04 09:40:39;;;;;;;45.05;18.13;;;9.10;99.90;;;;;;5014780;28;20446;-64
2022/01/04 09:43:07;;;;;;;36.83;17.75;;;9.10;99.90;;;;;;5014928;28;20041;-62
2022/01/04 09:45:33;;;;;;;37.10;17.02;;;9.10;99.90;;;;;;5015321;28;20060;-63
2022/01/04 09:47:59;;;;;;;34.42;17.33;;;9.10;99.90;;;;;;5018479;28;20487;-63
2022/01/04 09:50:25;;;;;;;32.00;17.67;;;9.20;99.90;;;;;;5014180;28;20037;-62
2022/01/04 09:52:55;;;;;;;35.72;16.77;;;9.20;99.90;;;;;;5015105;28;20029;-62
2022/01/04 09:55:20;;;;;;;36.28;18.25;;;9.20;99.90;;;;;;5014567;28;20035;-63
2022/01/04 09:57:47;;;;;;;35.33;17.83;;;9.20;99.90;;;;;;5014361;28;20392;-62
2022/01/04 10:00:15;;;;;;;36.80;18.55;;;9.20;99.90;;;;;;5014529;28;20080;-62
2022/01/04 10:02:49;;;;;;;40.45;18.90;;;9.30;99.90;;;;;;5014489;28;20026;-61
2022/01/04 10:05:25;;;;;;;40.60;18.95;;;9.30;99.90;;;;;;5014532;28;20105;-62
2022/01/04 10:08:01;;;;;;;39.42;19.80;;;9.20;99.90;;;;;;5013117;28;20494;-62
2022/01/04 10:10:27;;;;;;;39.05;19.23;;;9.20;99.90;;;;;;5014231;28;20038;-63
2022/01/04 10:12:55;;;;;;;42.67;19.65;;;9.20;99.90;;;;;;5014501;28;20050;-63
2022/01/04 10:15:38;;;;;;;35.03;18.40;;;9.20;99.90;;;;;;5014663;28;20101;-63
2022/01/04 10:18:20;;;;;;;40.47;19.85;;;9.20;99.90;;;;;;5014945;28;20026;-63
2022/01/04 10:20:51;;;;;;;43.63;20.08;;;9.10;99.90;;;;;;5014966;28;20026;-63
2022/01/04 10:23:22;;;;;;;34.60;18.65;;;9.10;99.90;;;;;;5014833;28;20033;-63
2022/01/04 10:25:50;;;;;;;38.97;20.23;;;9.00;99.90;;;;;;5014880;28;20040;-63
2022/01/04 10:28:34;;;;;;;46.92;19.38;;;9.00;99.90;;;;;;5014774;28;20030;-63
2022/01/04 10:31:03;;;;;;;43.35;20.30;;;9.00;99.90;;;;;;5014739;28;20026;-62
2022/01/04 10:33:31;;;;;;;41.17;19.63;;;9.00;99.90;;;;;;5014290;28;20022;-63
2022/01/04 10:35:58;;;;;;;43.70;20.58;;;9.00;99.90;;;;;;5014863;28;20026;-63
2022/01/04 10:38:35;;;;;;;39.35;19.55;;;9.00;99.90;;;;;;5014721;28;20018;-62
2022/01/04 10:41:04;;;;;;;39.70;18.17;;;8.90;99.90;;;;;;5014867;28;20026;-63
2022/01/04 10:43:39;;;;;;;37.33;18.80;;;8.90;99.90;;;;;;5014682;28;20034;-63
2022/01/04 10:46:05;;;;;;;35.80;16.92;;;8.90;99.90;;;;;;5014268;28;20079;-63
2022/01/04 10:48:39;;;;;;;32.30;16.63;;;8.80;99.90;;;;;;5016165;28;20112;-64
2022/01/04 10:51:14;;;;;;;31.55;14.77;;;8.80;99.90;;;;;;5015326;28;20033;-63
2022/01/04 10:53:40;;;;;;;24.08;12.20;;;8.70;99.90;;;;;;5017445;28;20027;-65
2022/01/04 10:56:09;;;;;;;23.95;10.98;;;8.70;99.90;;;;;;5019174;28;20022;-64
2022/01/04 10:58:38;;;;;;;20.77;11.80;;;8.80;99.90;;;;;;5016134;28;20026;-64
2022/01/04 11:01:07;;;;;;;16.10;9.15;;;8.80;99.90;;;;;;5015951;28;20030;-64
2022/01/04 11:03:36;;;;;;;15.70;8.43;;;8.70;99.90;;;;;;5015590;28;20117;-64
2022/01/04 11:06:07;;;;;;;21.10;10.55;;;8.70;99.90;;;;;;5015320;28;20498;-64
2022/01/04 11:08:34;;;;;;;18.38;7.93;;;8.60;99.90;;;;;;5015987;28;20029;-64
2022/01/04 11:11:00;;;;;;;19.83;8.18;;;8.50;99.90;;;;;;5015389;28;20076;-64
2022/01/04 11:13:25;;;;;;;14.43;4.82;;;8.30;99.90;;;;;;5013348;28;20021;-64
2022/01/04 11:15:52;;;;;;;9.48;3.63;;;8.10;99.90;;;;;;5013173;28;20391;-64
2022/01/04 11:18:18;;;;;;;11.93;3.80;;;8.00;99.90;;;;;;5014831;28;20417;-64
2022/01/04 11:20:44;;;;;;;11.00;3.22;;;7.80;99.90;;;;;;5013962;28;20045;-64
2022/01/04 11:23:12;;;;;;;9.98;2.92;;;7.70;99.90;;;;;;5013863;28;20026;-64
2022/01/04 11:25:41;;;;;;;5.55;2.67;;;7.60;99.90;;;;;;5012163;28;20384;-64
2022/01/04 11:28:09;;;;;;;4.78;3.05;;;7.60;99.90;;;;;;5013523;28;20391;-64
2022/01/04 11:31:00;;;;;;;7.38;3.13;;;7.50;99.90;;;;;;5013106;28;20062;-64
2022/01/04 11:33:44;;;;;;;12.20;3.40;;;7.50;99.90;;;;;;5013377;28;20018;-64
2022/01/04 11:36:14;;;;;;;7.57;3.60;;;7.60;99.90;;;;;;5013611;28;20030;-64
2022/01/04 11:38:40;;;;;;;7.22;2.65;;;7.60;99.90;;;;;;5013699;28;20025;-64
2022/01/04 11:41:06;;;;;;;7.65;2.85;;;7.60;99.90;;;;;;5013676;28;20475;-64
2022/01/04 11:43:40;;;;;;;7.35;3.65;;;7.50;99.90;;;;;;5013793;28;20050;-64
2022/01/04 11:46:06;;;;;;;6.93;3.25;;;7.40;99.90;;;;;;5013573;28;20053;-64
2022/01/04 11:48:41;;;;;;;11.65;4.00;;;7.40;99.90;;;;;;5014575;28;20529;-64
2022/01/04 11:51:28;;;;;;;10.70;4.38;;;7.40;99.90;;;;;;5013324;28;20069;-64
2022/01/04 11:54:17;;;;;;;16.17;4.93;;;7.40;99.90;;;;;;5014954;28;20026;-64
2022/01/04 11:56:55;;;;;;;13.88;5.93;;;7.40;99.90;;;;;;5015381;28;20066;-64
2022/01/04 11:59:31;;;;;;;18.17;6.03;;;7.40;99.90;;;;;;5016697;28;20018;-64
2022/01/04 12:01:56;;;;;;;9.30;4.28;;;7.40;99.90;;;;;;5015570;28;20479;-63
2022/01/04 12:04:49;;;;;;;12.82;5.45;;;7.40;99.90;;;;;;5020500;28;20056;-63
2022/01/04 12:07:39;;;;;;;11.95;5.10;;;7.50;99.90;;;;;;5021352;28;20475;-64
2022/01/04 12:10:20;;;;;;;17.83;5.72;;;7.50;99.90;;;;;;5018814;28;20398;-63
2022/01/04 12:13:18;;;;;;;8.60;4.40;;;7.50;99.90;;;;;;5021110;28;20038;-63
2022/01/04 12:15:45;;;;;;;16.48;5.95;;;7.60;99.90;;;;;;5022933;28;20029;-63
2022/01/04 12:18:23;;;;;;;12.23;5.65;;;7.60;99.90;;;;;;5020311;28;20053;-63
2022/01/04 12:20:50;;;;;;;10.77;6.10;;;7.60;99.90;;;;;;5019706;28;20033;-63
2022/01/04 12:23:22;;;;;;;10.85;5.93;;;7.70;99.90;;;;;;5021792;28;20037;-63
2022/01/04 12:26:05;;;;;;;13.65;6.20;;;7.70;99.90;;;;;;5025097;28;20033;-63
2022/01/04 12:28:43;;;;;;;19.38;6.80;;;7.70;99.90;;;;;;5022369;28;20055;-63
2022/01/04 12:31:18;;;;;;;13.10;5.97;;;7.70;99.90;;;;;;5017755;28;20041;-64
2022/01/04 12:33:54;;;;;;;16.88;6.60;;;7.70;99.90;;;;;;5016295;28;20018;-63
2022/01/04 12:36:27;;;;;;;15.65;7.13;;;7.60;99.90;;;;;;5016596;28;20395;-62
2022/01/04 12:38:55;;;;;;;13.93;6.82;;;7.60;99.90;;;;;;5016392;28;20025;-62
2022/01/04 12:41:21;;;;;;;14.20;7.00;;;7.60;99.90;;;;;;5015305;28;20030;-62
2022/01/04 12:43:49;;;;;;;19.23;6.75;;;7.60;99.90;;;;;;5014821;28;20053;-61
2022/01/04 12:46:34;;;;;;;14.65;7.30;;;7.60;99.90;;;;;;5014919;28;20026;-61
2022/01/04 12:49:02;;;;;;;19.88;8.48;;;7.70;99.90;;;;;;5015665;28;20030;-61
2022/01/04 12:51:38;;;;;;;24.50;7.78;;;7.80;99.90;;;;;;5015112;28;20394;-59
2022/01/04 12:54:07;;;;;;;13.43;5.82;;;7.80;99.90;;;;;;5015522;28;20121;-59
2022/01/04 12:56:50;;;;;;;12.63;6.15;;;7.90;99.90;;;;;;5014980;28;20061;-61